Hauptseite
METAR-TAF:

METAR-TAF

Flughäfen :

Flughafen Berlin-Tegel

Berlin, Deutschland

Breite: 52-34N, Länge: 013-19E, Höhe: 37 m

Beobachtung

Neuester Wetterbericht von vor 29 Minuten, um 19:20 UTC
Wind 1 kt aus unterschiedlichen Richtungen
Temperatur 22°C
Luftfeuchtigkeit 43%
Luftdruck 1018 hPa
Sichtweite 10 km oder mehr
keine Wolken unter 1500 m und keine Kumulonimbus oder Gewitterwolken

METAR: EDDT 051920Z VRB01KT CAVOK 22/09 Q1018 NOSIG

Zeit: 21:49 (19:49 UTC)

Prognose

Neuester Wetterbericht von vor 2 Stunden und 49 Minuten, um 17:00 UTC
Gültige Prognose vom 05 um 18 UTC bis 06 um 18 UTC
Wind 6 kt aus Süd/Südwest
Sichtweite 10 km oder mehr
keine Wolken unter 1500 m und keine Kumulonimbus oder Gewitterwolken
Übergehend zu
vom 05 um 18 UTC bis 05 um 20 UTC
Wind 5 kt aus Südost

TAF: EDDT 051700Z 0518/0618 20006KT CAVOK BECMG 0518/0520 13005KT

Wetterbeobachtungen und Prognosen von mehr als 4000 Flughäfen (METAR und TAF Bericht).

Die verfügbaren Stationen werden durch gelbe und rote Markierungen auf der Karte dargestellt.

Führen Sie die Maus auf sie, um den Namen der Station zu sehen.

Darauf klicken, um die Beobachtung von Wetterbeobachtungen und Prognosen zu sehen.

Um die Karte zu ändern : klicken Sie auf den grünen Tasten mit einem schwarzen Kreuz Zum Vergrößern, auf den grünen Button mit einem Gedankenstrich zu verkleinern, oder auf die grünen Pfeile für benachbarte Karten.


METAR-TAF: